Terminal Aerodrome Forecast
Issued by NWS

Home | Current Version | Previous Version | Text Only | Print | Product List | Glossary On
Versions: 1 2 3 4 5 6 7 8 9 10 11 12 13 14 15 16 17 18 19 20 21
000
FTUS43 KMQT 210527
TAFSAW
TAF
KSAW 210527Z 2106/2206 17003KT 1/2SM FG OVC003
     FM211300 15003KT 1/4SM FG OVC003
     FM211500 14004KT 1/2SM FG OVC003
     FM211700 14004KT 3/4SM BR OVC003
     FM211900 13005KT 3/4SM BR VCSH OVC003
     FM212000 12004KT 1/2SM FG VCSH OVC003
     FM220000 11004KT 1/2SM -SHRA FG OVC003=

USA.gov is the U.S. government's official web portal to all federal, state and local government web resources and services.